TimePDT,TemperatureF,Dew PointF,Humidity,Sea Level PressureIn,VisibilityMPH,Wind Direction,Wind SpeedMPH,Gust SpeedMPH,PrecipitationIn,Events,Conditions,WindDirDegrees,DateUTC
12:47 AM,66.0,60.1,81,29.89,6.0,Calm,Calm,-,N/A,,Haze,0,2013-08-19 07:47:00
1:47 AM,64.9,59.0,81,29.88,7.0,Calm,Calm,-,N/A,,Clear,0,2013-08-19 08:47:00
2:47 AM,64.9,59.0,81,29.88,9.0,Calm,Calm,-,N/A,,Clear,0,2013-08-19 09:47:00
3:16 AM,64.4,60.8,88,29.88,6.0,Calm,Calm,-,N/A,,Partly Cloudy,0,2013-08-19 10:16:00
3:31 AM,64.4,60.8,88,29.88,7.0,Calm,Calm,-,N/A,,Mostly Cloudy,0,2013-08-19 10:31:00
3:47 AM,64.0,60.1,87,29.88,5.0,Calm,Calm,-,N/A,,Overcast,0,2013-08-19 10:47:00
4:47 AM,64.0,61.0,90,29.88,6.0,Calm,Calm,-,N/A,,Overcast,0,2013-08-19 11:47:00
5:47 AM,64.9,61.0,87,29.88,6.0,Calm,Calm,-,N/A,,Overcast,0,2013-08-19 12:47:00
6:47 AM,66.0,61.0,84,29.90,5.0,Calm,Calm,-,N/A,,Haze,0,2013-08-19 13:47:00
6:50 AM,66.2,60.8,83,29.91,5.0,Calm,Calm,-,N/A,,Haze,0,2013-08-19 13:50:00
7:47 AM,66.9,61.0,81,29.92,5.0,Calm,Calm,-,N/A,,Haze,0,2013-08-19 14:47:00
8:47 AM,68.0,61.0,78,29.93,6.0,Calm,Calm,-,N/A,,Haze,0,2013-08-19 15:47:00
9:47 AM,69.1,61.0,75,29.94,5.0,Calm,Calm,-,N/A,,Haze,0,2013-08-19 16:47:00
10:38 AM,69.8,60.8,73,29.94,5.0,Calm,Calm,-,N/A,,Haze,0,2013-08-19 17:38:00
10:47 AM,71.1,61.0,70,29.94,5.0,Variable,3.5,-,N/A,,Haze,0,2013-08-19 17:47:00
11:29 AM,75.2,60.8,61,29.94,6.0,Calm,Calm,-,N/A,,Haze,0,2013-08-19 18:29:00
11:47 AM,75.9,61.0,60,29.93,7.0,Calm,Calm,-,N/A,,Partly Cloudy,0,2013-08-19 18:47:00
12:47 PM,78.1,61.0,56,29.91,8.0,Variable,3.5,-,N/A,,Clear,0,2013-08-19 19:47:00
1:47 PM,77.0,61.0,58,29.90,10.0,Variable,3.5,-,N/A,,Clear,0,2013-08-19 20:47:00
2:47 PM,77.0,61.0,58,29.88,10.0,Calm,Calm,-,N/A,,Clear,0,2013-08-19 21:47:00
3:47 PM,75.9,61.0,60,29.86,10.0,Calm,Calm,-,N/A,,Clear,0,2013-08-19 22:47:00
4:47 PM,73.9,60.1,62,29.86,10.0,Variable,4.6,-,N/A,,Clear,0,2013-08-19 23:47:00
5:47 PM,71.1,60.1,68,29.86,10.0,Calm,Calm,-,N/A,,Clear,0,2013-08-20 00:47:00
6:47 PM,69.1,60.1,73,29.86,10.0,Calm,Calm,-,N/A,,Clear,0,2013-08-20 01:47:00
7:47 PM,66.0,60.1,81,29.88,9.0,Calm,Calm,-,N/A,,Partly Cloudy,0,2013-08-20 02:47:00
8:08 PM,66.2,60.8,83,29.89,9.0,West,3.5,-,N/A,,Mostly Cloudy,260,2013-08-20 03:08:00
8:47 PM,66.0,60.1,81,29.89,8.0,Calm,Calm,-,N/A,,Mostly Cloudy,0,2013-08-20 03:47:00
9:47 PM,64.9,60.1,84,29.90,7.0,Calm,Calm,-,N/A,,Mostly Cloudy,0,2013-08-20 04:47:00
10:47 PM,64.9,60.1,84,29.90,8.0,Calm,Calm,-,N/A,,Mostly Cloudy,0,2013-08-20 05:47:00
11:47 PM,64.0,60.1,87,29.90,8.0,Calm,Calm,-,N/A,,Overcast,0,2013-08-20 06:47:00